createdAt,value
2023-02-06T00:00:19.361Z,5.60
2023-02-06T00:02:48.116Z,5.77
2023-02-06T00:05:16.585Z,6.07
2023-02-06T00:07:44.953Z,5.43
2023-02-06T00:10:13.269Z,5.60
2023-02-06T00:12:41.674Z,6.97
2023-02-06T00:15:11.653Z,6.37
2023-02-06T00:17:40.050Z,5.97
2023-02-06T00:20:09.061Z,6.03
2023-02-06T00:22:37.439Z,6.70
2023-02-06T00:25:05.909Z,5.13
2023-02-06T00:27:34.359Z,6.47
2023-02-06T00:30:02.795Z,5.90
2023-02-06T00:32:32.558Z,5.57
2023-02-06T00:35:00.912Z,5.37
2023-02-06T00:37:29.373Z,6.43
2023-02-06T00:39:57.754Z,5.33
2023-02-06T00:42:26.116Z,5.57
2023-02-06T00:44:54.598Z,5.13
2023-02-06T00:47:22.976Z,5.43
2023-02-06T00:49:52.675Z,5.40
2023-02-06T00:52:21.308Z,5.73
2023-02-06T00:54:49.638Z,5.80
2023-02-06T00:57:17.988Z,5.90
2023-02-06T00:59:46.415Z,6.03
2023-02-06T01:02:14.928Z,6.07
2023-02-06T01:04:43.205Z,5.13
2023-02-06T01:07:18.977Z,5.07
2023-02-06T01:09:47.349Z,5.37
2023-02-06T01:12:15.674Z,5.57
2023-02-06T01:14:44.027Z,5.93
2023-02-06T01:17:12.366Z,4.93
2023-02-06T01:19:40.892Z,5.90
2023-02-06T01:22:09.272Z,5.47
2023-02-06T01:24:39.364Z,5.23
2023-02-06T01:27:07.705Z,5.23
2023-02-06T01:29:36.099Z,5.87
2023-02-06T01:32:04.646Z,5.93
2023-02-06T01:34:33.006Z,7.03
2023-02-06T01:37:01.335Z,5.53
2023-02-06T01:39:29.663Z,5.40
2023-02-06T01:41:59.386Z,6.57
2023-02-06T01:44:27.709Z,4.90
2023-02-06T01:46:57.957Z,4.90
2023-02-06T01:49:26.953Z,6.17
2023-02-06T01:51:55.380Z,5.37
2023-02-06T01:54:23.737Z,6.37
2023-02-06T01:56:53.102Z,5.87
2023-02-06T01:59:22.831Z,4.87
2023-02-06T02:01:51.194Z,5.07
2023-02-06T02:04:20.131Z,5.27
2023-02-06T02:06:48.878Z,5.00
2023-02-06T02:09:17.160Z,5.00
2023-02-06T02:11:45.432Z,4.63
2023-02-06T02:14:14.283Z,4.53
2023-02-06T02:16:44.959Z,4.80
2023-02-06T02:19:28.221Z,4.47
2023-02-06T02:22:11.489Z,5.30
2023-02-06T02:24:48.593Z,4.93
2023-02-06T02:27:31.835Z,5.20
2023-02-06T02:30:05.832Z,5.10
2023-02-06T02:32:45.031Z,5.07
2023-02-06T02:35:27.344Z,4.43
2023-02-06T02:38:05.984Z,5.07
2023-02-06T02:40:37.880Z,4.80
2023-02-06T02:43:07.578Z,4.40
2023-02-06T02:45:37.701Z,4.40
2023-02-06T02:48:06.951Z,4.63
2023-02-06T02:50:36.774Z,4.67
2023-02-06T02:53:05.160Z,4.43
2023-02-06T02:55:33.665Z,4.20
2023-02-06T02:58:02.739Z,4.57
2023-02-06T03:00:31.498Z,4.87
2023-02-06T03:02:59.813Z,4.33
2023-02-06T03:05:28.280Z,4.13
2023-02-06T03:08:02.712Z,4.97
2023-02-06T03:10:34.718Z,4.63
2023-02-06T03:13:05.031Z,5.43
2023-02-06T03:15:35.426Z,4.40
2023-02-06T03:18:05.419Z,4.63
2023-02-06T03:20:34.058Z,5.40
2023-02-06T03:23:03.937Z,4.43
2023-02-06T03:25:32.810Z,4.93
2023-02-06T03:28:01.431Z,4.27
2023-02-06T03:30:29.992Z,5.37
2023-02-06T03:32:59.091Z,3.83
2023-02-06T03:35:28.193Z,5.03
2023-02-06T03:37:56.558Z,4.40
2023-02-06T03:40:26.298Z,3.70
2023-02-06T03:42:56.230Z,4.70
2023-02-06T03:45:26.121Z,4.10
2023-02-06T03:47:54.486Z,4.07
2023-02-06T03:50:23.141Z,4.67
2023-02-06T03:52:51.661Z,4.77
2023-02-06T03:55:21.232Z,4.37
2023-02-06T03:57:52.003Z,3.80
2023-02-06T04:00:20.648Z,5.27
2023-02-06T04:02:49.252Z,5.83
2023-02-06T04:05:18.131Z,4.67
2023-02-06T04:07:46.522Z,4.13
2023-02-06T04:10:14.956Z,5.20
2023-02-06T04:12:43.420Z,4.27
2023-02-06T04:15:13.255Z,4.50
2023-02-06T04:17:57.609Z,4.07
2023-02-06T04:20:28.200Z,4.20
2023-02-06T04:22:56.620Z,3.83
2023-02-06T04:25:25.251Z,4.97
2023-02-06T04:27:53.715Z,5.07
2023-02-06T04:30:23.762Z,4.90
2023-02-06T04:32:52.189Z,4.13
2023-02-06T04:35:20.952Z,4.77
2023-02-06T04:37:49.490Z,4.70
2023-02-06T04:40:18.118Z,4.83
2023-02-06T04:42:46.464Z,4.87
2023-02-06T04:45:15.047Z,4.30
2023-02-06T04:47:45.096Z,3.97
2023-02-06T04:50:13.610Z,4.27
2023-02-06T04:52:42.158Z,4.40
2023-02-06T04:55:10.837Z,4.60
2023-02-06T04:57:39.403Z,4.77
2023-02-06T05:00:09.388Z,4.20
2023-02-06T05:02:39.912Z,3.90
2023-02-06T05:05:10.769Z,3.87
2023-02-06T05:07:39.280Z,4.63
2023-02-06T05:10:08.999Z,4.27
2023-02-06T05:12:37.648Z,4.87
2023-02-06T05:15:06.841Z,4.17
2023-02-06T05:17:35.397Z,4.40
2023-02-06T05:20:03.885Z,3.93
2023-02-06T05:22:34.045Z,4.47
2023-02-06T05:25:02.547Z,3.93
2023-02-06T05:27:31.112Z,4.77
2023-02-06T05:29:59.506Z,4.57
2023-02-06T05:32:27.937Z,5.03
2023-02-06T05:34:56.840Z,4.47
2023-02-06T05:37:25.257Z,4.33
2023-02-06T05:39:55.301Z,3.97
2023-02-06T05:42:23.653Z,5.07
2023-02-06T05:44:52.109Z,5.00
2023-02-06T05:47:20.589Z,4.23
2023-02-06T05:49:49.546Z,4.17
2023-02-06T05:52:17.937Z,4.53
2023-02-06T05:54:46.356Z,4.10
2023-02-06T05:57:16.354Z,5.00
2023-02-06T05:59:44.747Z,4.83
2023-02-06T06:02:13.529Z,5.87
2023-02-06T06:04:41.997Z,4.40
2023-02-06T06:07:10.604Z,4.40
2023-02-06T06:09:39.186Z,4.60
2023-02-06T06:12:07.995Z,5.30
2023-02-06T06:14:37.842Z,4.50
2023-02-06T06:17:06.414Z,7.57
2023-02-06T06:19:34.849Z,5.57
2023-02-06T06:22:03.192Z,5.73
2023-02-06T06:24:31.753Z,5.00
2023-02-06T06:27:00.501Z,4.70
2023-02-06T06:29:29.455Z,4.87
2023-02-06T06:31:59.506Z,5.57
2023-02-06T06:34:28.744Z,5.43
2023-02-06T06:36:57.175Z,4.83
2023-02-06T06:39:25.737Z,5.70
2023-02-06T06:41:54.411Z,5.13
2023-02-06T06:44:23.277Z,5.10
2023-02-06T06:46:52.448Z,6.20
2023-02-06T06:49:22.629Z,6.20
2023-02-06T06:51:51.017Z,5.03
2023-02-06T06:54:20.568Z,4.37
2023-02-06T06:56:49.261Z,4.87
2023-02-06T06:59:17.890Z,5.37
2023-02-06T07:01:46.720Z,5.03
2023-02-06T07:04:15.453Z,5.70
2023-02-06T07:06:45.374Z,5.37
2023-02-06T07:09:14.005Z,4.90
2023-02-06T07:11:43.037Z,5.97
2023-02-06T07:14:11.833Z,4.50
2023-02-06T07:16:40.341Z,5.20
2023-02-06T07:19:09.793Z,5.07
2023-02-06T07:21:39.367Z,5.80
2023-02-06T07:24:09.921Z,6.50
2023-02-06T07:26:38.422Z,5.50
2023-02-06T07:29:06.891Z,5.27
2023-02-06T07:31:35.473Z,5.80
2023-02-06T07:34:03.893Z,5.43
2023-02-06T07:36:33.195Z,5.70
2023-02-06T07:39:01.672Z,5.63
2023-02-06T07:41:31.775Z,5.70
2023-02-06T07:44:00.270Z,5.17
2023-02-06T07:46:29.953Z,6.23
2023-02-06T07:48:59.030Z,5.37
2023-02-06T07:51:27.939Z,5.03
2023-02-06T07:53:56.343Z,6.10
2023-02-06T07:56:25.347Z,5.97
2023-02-06T07:58:55.566Z,6.37
2023-02-06T08:01:24.663Z,6.77
2023-02-06T08:03:53.441Z,6.30
2023-02-06T08:06:24.192Z,5.57
2023-02-06T08:08:52.782Z,6.70
2023-02-06T08:11:21.853Z,5.97
2023-02-06T08:13:51.850Z,6.43
2023-02-06T08:16:22.389Z,6.20
2023-02-06T08:18:50.963Z,7.33
2023-02-06T08:21:20.793Z,7.00
2023-02-06T08:23:49.574Z,5.67
2023-02-06T08:26:18.444Z,7.07
2023-02-06T08:28:47.254Z,6.13
2023-02-06T08:31:16.448Z,6.90
2023-02-06T08:33:46.387Z,6.13
2023-02-06T08:36:15.050Z,5.63
2023-02-06T08:38:43.458Z,6.07
2023-02-06T08:41:22.681Z,6.63
2023-02-06T08:43:51.508Z,6.83
2023-02-06T08:46:20.991Z,6.40
2023-02-06T08:48:50.887Z,6.20
2023-02-06T08:51:19.511Z,7.27
2023-02-06T08:53:47.911Z,6.70
2023-02-06T08:56:16.586Z,6.93
2023-02-06T08:58:45.037Z,6.70
2023-02-06T09:01:14.709Z,6.60
2023-02-06T09:03:43.281Z,7.00
2023-02-06T09:06:13.244Z,6.20
2023-02-06T09:08:41.714Z,6.80
2023-02-06T09:11:10.819Z,6.27
2023-02-06T09:13:39.245Z,6.73
2023-02-06T09:16:08.298Z,6.73
2023-02-06T09:18:36.831Z,6.40
2023-02-06T09:21:06.437Z,7.17
2023-02-06T09:23:36.573Z,6.13
2023-02-06T09:26:04.946Z,5.87
2023-02-06T09:28:33.614Z,7.73
2023-02-06T09:31:02.367Z,7.93
2023-02-06T09:33:31.206Z,7.63
2023-02-06T09:36:03.632Z,6.67
2023-02-06T09:38:32.166Z,7.27
2023-02-06T09:41:02.816Z,6.50
2023-02-06T09:43:31.378Z,7.50
2023-02-06T09:46:00.301Z,6.60
2023-02-06T09:48:29.225Z,6.30
2023-02-06T09:50:59.698Z,4.97
2023-02-06T09:53:30.453Z,5.33
2023-02-06T09:56:03.611Z,4.90
2023-02-06T09:58:38.831Z,4.53
2023-02-06T10:01:07.726Z,4.50
2023-02-06T10:03:39.137Z,4.90
2023-02-06T10:06:11.072Z,5.10
2023-02-06T10:08:40.088Z,5.13
2023-02-06T10:11:11.739Z,4.57
2023-02-06T10:13:40.997Z,4.80
2023-02-06T10:16:11.887Z,5.27
2023-02-06T10:18:41.592Z,4.43
2023-02-06T10:21:12.803Z,3.87
2023-02-06T10:23:43.028Z,4.43
2023-02-06T10:26:17.503Z,3.90
2023-02-06T10:28:46.204Z,4.93
2023-02-06T10:31:18.412Z,3.87
2023-02-06T10:33:49.083Z,4.33
2023-02-06T10:36:23.628Z,3.40
2023-02-06T10:39:07.919Z,3.80
2023-02-06T10:41:39.034Z,3.97
2023-02-06T10:44:10.184Z,3.80
2023-02-06T10:46:40.911Z,3.70
2023-02-06T10:49:12.461Z,3.53
2023-02-06T10:51:42.524Z,3.83
2023-02-06T10:54:13.558Z,3.70
2023-02-06T10:56:44.538Z,2.83
2023-02-06T10:59:15.389Z,3.27
2023-02-06T11:01:44.257Z,4.10
2023-02-06T11:04:15.423Z,4.00
2023-02-06T11:06:45.980Z,4.47
2023-02-06T11:09:14.531Z,4.57
2023-02-06T11:11:48.508Z,4.03
2023-02-06T11:14:18.137Z,3.57
2023-02-06T11:16:46.851Z,3.93
2023-02-06T11:19:19.449Z,3.77
2023-02-06T11:21:50.780Z,3.43
2023-02-06T11:24:21.391Z,3.87
2023-02-06T11:26:52.052Z,3.30
2023-02-06T11:29:21.890Z,3.10
2023-02-06T11:31:51.366Z,3.77
2023-02-06T11:34:23.557Z,3.13
2023-02-06T11:36:53.276Z,5.27
2023-02-06T11:39:27.605Z,3.67
2023-02-06T11:42:01.820Z,4.73
2023-02-06T11:44:30.650Z,4.37
2023-02-06T11:46:59.099Z,3.40
2023-02-06T11:49:29.121Z,3.93
2023-02-06T11:51:59.924Z,3.47
2023-02-06T11:54:29.215Z,4.03
2023-02-06T11:56:58.773Z,4.00
2023-02-06T11:59:30.075Z,3.60
2023-02-06T12:02:01.489Z,3.87
2023-02-06T12:04:30.433Z,4.30
2023-02-06T12:07:00.333Z,4.50
2023-02-06T12:09:28.719Z,3.80
2023-02-06T12:11:59.163Z,3.93
2023-02-06T12:14:29.928Z,4.53
2023-02-06T12:16:59.178Z,4.43
2023-02-06T12:19:31.664Z,3.50
2023-02-06T12:22:02.359Z,3.80
2023-02-06T12:24:32.320Z,3.60
2023-02-06T12:27:01.534Z,3.63
2023-02-06T12:29:32.255Z,4.80
2023-02-06T12:32:04.623Z,4.00
2023-02-06T12:34:43.023Z,4.33
2023-02-06T12:37:14.538Z,3.57
2023-02-06T12:39:43.851Z,3.30
2023-02-06T12:42:29.748Z,3.43
2023-02-06T12:45:01.159Z,4.13
2023-02-06T12:47:31.086Z,3.60
2023-02-06T12:50:00.546Z,3.37
2023-02-06T12:52:31.170Z,4.77
2023-02-06T12:55:02.874Z,3.67
2023-02-06T12:57:32.013Z,3.20
2023-02-06T13:00:09.770Z,3.67
2023-02-06T13:02:52.949Z,2.83
2023-02-06T13:05:23.420Z,2.60
2023-02-06T13:07:52.057Z,3.40
2023-02-06T13:10:20.787Z,4.50
2023-02-06T13:12:54.776Z,3.50
2023-02-06T13:15:25.690Z,2.90
2023-02-06T13:17:55.629Z,3.40
2023-02-06T13:20:24.491Z,3.33
2023-02-06T13:22:53.991Z,3.10
2023-02-06T13:25:55.594Z,2.57
2023-02-06T13:28:42.869Z,2.90
2023-02-06T13:31:23.850Z,3.67
2023-02-06T13:33:52.738Z,3.00
2023-02-06T13:36:26.236Z,3.13
2023-02-06T13:38:57.988Z,3.13
2023-02-06T13:41:33.032Z,3.37
2023-02-06T13:44:05.365Z,3.07
2023-02-06T13:46:59.179Z,3.13
2023-02-06T13:49:38.414Z,2.60
2023-02-06T13:52:08.367Z,2.90
2023-02-06T13:55:00.782Z,3.37
2023-02-06T13:57:40.088Z,2.73
2023-02-06T14:00:12.003Z,2.73
2023-02-06T14:02:42.767Z,2.87
2023-02-06T14:05:12.082Z,2.83
2023-02-06T14:07:50.599Z,3.03
2023-02-06T14:10:23.709Z,3.17
2023-02-06T14:12:56.495Z,3.50
2023-02-06T14:15:28.721Z,3.20
2023-02-06T14:18:02.518Z,3.40
2023-02-06T14:20:33.483Z,3.73
2023-02-06T14:23:06.054Z,3.17
2023-02-06T14:25:39.500Z,3.70
2023-02-06T14:28:10.295Z,3.83
2023-02-06T14:30:39.997Z,3.83
2023-02-06T14:33:13.151Z,3.10
2023-02-06T14:35:45.572Z,3.73
2023-02-06T14:38:31.638Z,3.33
2023-02-06T14:41:02.012Z,3.77
2023-02-06T14:43:31.555Z,3.60
2023-02-06T14:46:07.521Z,4.00
2023-02-06T14:48:39.655Z,3.93
2023-02-06T14:51:08.137Z,3.60
2023-02-06T14:53:37.318Z,3.63
2023-02-06T14:56:09.688Z,3.63
2023-02-06T14:58:38.278Z,4.80
2023-02-06T15:01:13.934Z,3.67
2023-02-06T15:03:44.366Z,4.30
2023-02-06T15:06:14.035Z,4.03
2023-02-06T15:08:49.005Z,3.77
2023-02-06T15:11:22.148Z,3.40
2023-02-06T15:13:51.386Z,3.63
2023-02-06T15:16:26.888Z,3.87
2023-02-06T15:21:56.900Z,3.90
2023-02-06T15:24:38.536Z,4.67
2023-02-06T15:27:09.690Z,3.93
2023-02-06T15:29:38.572Z,4.17
2023-02-06T15:32:10.724Z,4.43
2023-02-06T15:34:40.082Z,3.63
2023-02-06T15:37:23.008Z,4.00
2023-02-06T15:39:52.112Z,4.63
2023-02-06T15:42:20.645Z,4.80
2023-02-06T15:44:49.744Z,5.37
2023-02-06T15:47:18.908Z,4.17
2023-02-06T15:49:47.898Z,4.93
2023-02-06T15:52:17.119Z,5.47
2023-02-06T15:54:46.943Z,4.70
2023-02-06T15:57:22.835Z,5.70
2023-02-06T15:59:51.413Z,4.93
2023-02-06T16:02:22.158Z,4.90
2023-02-06T16:04:52.464Z,5.20
2023-02-06T16:07:21.368Z,4.90
2023-02-06T16:09:53.203Z,4.93
2023-02-06T16:12:22.019Z,4.93
2023-02-06T16:14:54.498Z,4.90
2023-02-06T16:17:29.519Z,3.93
2023-02-06T16:20:03.712Z,4.53
2023-02-06T16:22:32.978Z,4.27
2023-02-06T16:25:15.930Z,4.37
2023-02-06T16:27:45.578Z,3.83
2023-02-06T16:30:20.877Z,4.00
2023-02-06T16:32:49.472Z,3.80
2023-02-06T16:35:18.056Z,4.07
2023-02-06T16:37:46.982Z,4.17
2023-02-06T16:40:16.816Z,4.10
2023-02-06T16:42:47.535Z,3.67
2023-02-06T16:45:18.674Z,4.07
2023-02-06T16:47:47.341Z,4.30
2023-02-06T16:50:15.895Z,4.27
2023-02-06T16:52:49.938Z,3.87
2023-02-06T16:55:22.216Z,3.67
2023-02-06T16:57:52.172Z,3.53
2023-02-06T17:00:21.390Z,3.70
2023-02-06T17:02:52.057Z,5.20
2023-02-06T17:05:20.997Z,4.83
2023-02-06T17:07:50.795Z,4.83
2023-02-06T17:10:21.144Z,4.30
2023-02-06T17:12:49.753Z,3.93
2023-02-06T17:15:18.699Z,4.00
2023-02-06T17:17:47.383Z,3.73
2023-02-06T17:20:21.812Z,4.87
2023-02-06T17:22:50.958Z,4.40
2023-02-06T17:25:21.013Z,4.23
2023-02-06T17:27:49.469Z,4.83
2023-02-06T17:30:18.880Z,3.83
2023-02-06T17:32:47.355Z,4.90
2023-02-06T17:35:15.887Z,4.30
2023-02-06T17:37:44.442Z,4.37
2023-02-06T17:40:14.464Z,5.27
2023-02-06T17:42:44.378Z,4.90
2023-02-06T17:45:12.903Z,4.97
2023-02-06T17:47:41.576Z,5.03
2023-02-06T17:50:19.326Z,6.37
2023-02-06T17:52:48.880Z,6.23
2023-02-06T17:55:18.661Z,4.70
2023-02-06T17:57:48.885Z,3.97
2023-02-06T18:00:18.074Z,4.17
2023-02-06T18:02:46.882Z,4.47
2023-02-06T18:05:15.491Z,4.63
2023-02-06T18:07:43.921Z,4.40
2023-02-06T18:10:12.854Z,4.50
2023-02-06T18:12:41.697Z,5.00
2023-02-06T18:15:13.822Z,4.63
2023-02-06T18:17:42.394Z,4.93
2023-02-06T18:20:12.730Z,6.10
2023-02-06T18:22:42.129Z,5.20
2023-02-06T18:25:10.977Z,5.80
2023-02-06T18:27:40.080Z,5.50
2023-02-06T18:30:09.106Z,5.77
2023-02-06T18:32:40.323Z,5.53
2023-02-06T18:35:09.469Z,6.83
2023-02-06T18:37:38.029Z,6.53
2023-02-06T18:40:07.104Z,7.47
2023-02-06T18:42:54.663Z,8.57
2023-02-06T18:45:26.329Z,7.90
2023-02-06T18:47:56.429Z,8.70
2023-02-06T18:50:25.233Z,8.30
2023-02-06T18:52:53.780Z,8.97
2023-02-06T18:55:22.223Z,8.87
2023-02-06T18:57:50.953Z,8.97
2023-02-06T19:00:20.173Z,10.53
2023-02-06T19:02:48.836Z,9.77
2023-02-06T19:05:19.756Z,10.23
2023-02-06T19:07:50.594Z,8.97
2023-02-06T19:10:19.592Z,8.40
2023-02-06T19:12:48.153Z,7.57
2023-02-06T19:15:16.891Z,7.43
2023-02-06T19:17:45.365Z,7.87
2023-02-06T19:20:14.402Z,6.63
2023-02-06T19:22:44.250Z,6.97
2023-02-06T19:25:14.553Z,7.20
2023-02-06T19:27:43.683Z,6.70
2023-02-06T19:30:13.129Z,7.10
2023-02-06T19:32:42.142Z,6.77
2023-02-06T19:35:12.079Z,6.90
2023-02-06T19:37:40.933Z,7.47
2023-02-06T19:40:11.328Z,8.37
2023-02-06T19:42:40.748Z,8.27
2023-02-06T19:45:09.931Z,7.60
2023-02-06T19:47:38.865Z,7.03
2023-02-06T19:50:07.756Z,7.40
2023-02-06T19:52:36.950Z,7.07
2023-02-06T19:55:05.688Z,7.20
2023-02-06T19:57:37.652Z,7.27
2023-02-06T20:00:08.387Z,7.37
2023-02-06T20:02:37.625Z,7.07
2023-02-06T20:05:06.625Z,6.67
2023-02-06T20:07:35.580Z,7.17
2023-02-06T20:10:07.411Z,7.20
2023-02-06T20:12:38.426Z,7.30
2023-02-06T20:15:07.793Z,7.07
2023-02-06T20:17:36.804Z,6.50
2023-02-06T20:20:07.001Z,6.43
2023-02-06T20:22:37.430Z,6.63
2023-02-06T20:25:07.162Z,6.23
2023-02-06T20:27:37.956Z,6.43
2023-02-06T20:30:07.735Z,6.60
2023-02-06T20:32:36.284Z,6.93
2023-02-06T20:35:04.997Z,6.90
2023-02-06T20:37:33.589Z,6.37
2023-02-06T20:40:02.650Z,6.23
2023-02-06T20:42:32.565Z,6.63
2023-02-06T20:45:02.723Z,7.57
2023-02-06T20:47:33.148Z,7.63
2023-02-06T20:50:02.275Z,7.40
2023-02-06T20:52:32.543Z,8.00
2023-02-06T20:55:01.412Z,6.77
2023-02-06T20:57:30.610Z,7.20
2023-02-06T20:59:59.283Z,7.93
2023-02-06T21:02:30.319Z,7.60
2023-02-06T21:04:58.866Z,7.93
2023-02-06T21:07:27.861Z,7.83
2023-02-06T21:10:02.486Z,8.80
2023-02-06T21:12:31.563Z,9.27
2023-02-06T21:15:03.608Z,9.13
2023-02-06T21:17:33.949Z,9.10
2023-02-06T21:20:03.782Z,9.60
2023-02-06T21:22:33.150Z,9.00
2023-02-06T21:25:01.743Z,9.10
2023-02-06T21:27:33.142Z,9.60
2023-02-06T21:30:02.373Z,9.03
2023-02-06T21:32:31.075Z,9.53
2023-02-06T21:35:00.990Z,8.60
2023-02-06T21:37:29.418Z,10.50
2023-02-06T21:39:57.864Z,9.13
2023-02-06T21:42:27.589Z,9.07
2023-02-06T21:44:56.157Z,8.40
2023-02-06T21:47:25.277Z,8.00
2023-02-06T21:49:53.824Z,9.07
2023-02-06T21:52:23.949Z,8.20
2023-02-06T21:54:52.749Z,10.17
2023-02-06T21:57:21.214Z,9.17
2023-02-06T21:59:50.156Z,9.57
2023-02-06T22:02:18.831Z,8.83
2023-02-06T22:04:47.766Z,8.67
2023-02-06T22:07:17.504Z,9.80
2023-02-06T22:09:47.380Z,8.43
2023-02-06T22:12:15.987Z,9.23
2023-02-06T22:14:44.520Z,8.87
2023-02-06T22:17:12.974Z,8.00
2023-02-06T22:19:43.700Z,9.40
2023-02-06T22:22:13.570Z,10.70
2023-02-06T22:24:44.430Z,11.13
2023-02-06T22:27:14.405Z,12.20
2023-02-06T22:29:42.999Z,11.17
2023-02-06T22:32:11.522Z,11.93
2023-02-06T22:34:40.098Z,12.00
2023-02-06T22:37:08.587Z,13.00
2023-02-06T22:39:36.957Z,12.97
2023-02-06T22:42:05.387Z,11.80
2023-02-06T22:44:35.392Z,11.53
2023-02-06T22:47:04.116Z,11.43
2023-02-06T22:49:33.313Z,12.30
2023-02-06T22:52:30.183Z,12.20
2023-02-06T22:55:00.629Z,11.83
2023-02-06T22:57:31.834Z,11.40
2023-02-06T23:00:01.856Z,10.93
2023-02-06T23:02:30.271Z,12.33
2023-02-06T23:04:58.742Z,12.10
2023-02-06T23:07:27.201Z,11.77
2023-02-06T23:09:55.847Z,11.80
2023-02-06T23:12:30.401Z,11.53
2023-02-06T23:14:58.861Z,11.93
2023-02-06T23:17:29.600Z,9.97
2023-02-06T23:19:58.074Z,10.30
2023-02-06T23:22:27.295Z,10.27
2023-02-06T23:24:55.709Z,10.17
2023-02-06T23:27:25.364Z,9.70
2023-02-06T23:29:53.963Z,11.37
2023-02-06T23:32:22.385Z,11.40
2023-02-06T23:34:52.198Z,10.87
2023-02-06T23:37:20.715Z,10.93
2023-02-06T23:39:49.889Z,12.33
2023-02-06T23:42:18.392Z,11.77
2023-02-06T23:44:46.904Z,11.67
2023-02-06T23:47:15.834Z,10.63
2023-02-06T23:49:44.556Z,12.50
2023-02-06T23:52:14.512Z,11.63
2023-02-06T23:54:43.102Z,11.50
2023-02-06T23:57:14.933Z,12.67
2023-02-06T23:59:43.543Z,12.10
